< < Back
Terminal Aerodrome Forecast


Current Version              Previous Versions:   1  2  3  4  5  6  7  8  9  

Terminal Aerodrome Forecast

330
FTUS44 KBMX 261736
TAFANB
TAF
KANB 261736Z 2618/2718 10006KT P6SM VCSH SCT050 SCT250
     FM270200 00000KT P6SM SCT070
     FM271200 00000KT P6SM FEW100
     FM271500 10002KT P6SM SCT120=

Latest METAR

585
SAUS70 KWBC 271300 RRB
MTRANB
METAR KANB 271253Z AUTO 09004KT 10SM FEW070 25/21 A3010 RMK AO2 SLP182
T02500211


USA.gov is the U.S. government's official web portal to all federal, state and local government web resources and services.